AirNav   Air Wisconsin Up To $57,000 Bonus
 
 1530 users online  

MO44 SSM Health St. Joseph Hospital-St. Charles Heliport
St Charles, Missouri, USA

GOING TO ST CHARLES?


FAA INFORMATION EFFECTIVE 31 DECEMBER 2020

Location

FAA Identifier: MO44
Lat/Long: 38-46-50.9800N 090-29-07.6300W
38-46.849667N 090-29.127167W
38.7808278,-90.4854528
(estimated)
Elevation: 530 ft. / 162 m (estimated)
Variation: 02E (1985)
From city: 1 mile N of ST CHARLES, MO
Time zone: UTC -6 (UTC -5 during Daylight Saving Time)
Zip code: 63301

Heliport Operations

Heliport use: Private use, MEDICAL.
Activation date: 11/1988
Control tower: no
ARTCC: KANSAS CITY CENTER
FSS: SAINT LOUIS FLIGHT SERVICE STATION
Attendance: CONTINUOUS
Wind indicator: yes
Segmented circle: no
Lights: FOR FLOOD LGTS CALL 636-443-7503.

Heliport Communications

WX ASOS at STL (6 nm E): 125.025 (314-890-4790)
WX ASOS at SET (9 nm N): 118.075 (636-250-4590)
WX ASOS at SUS (11 nm SW): 134.8 (314-890-7255)
WX ASOS at CPS (20 nm SE): PHONE 618-332-0001

Nearby radio navigation aids

VOR radial/distance  VOR name  Freq  Var
STLr181/4.8ST LOUIS VORTAC117.4001E
FTZr072/23.3FORISTELL VORTAC110.8005E
TOYr271/26.6TROY VORTAC116.0004E

 
NDB name  Hdg/Dist  Freq  Var  ID
EAVES026/6.922701WFZ ..-. --..
CIVIC MEMORIAL253/21.126301WCVM -.-. ...- --

Heliport Services

Runway Information

Helipad H1

Dimensions: 40 x 40 ft. / 12 x 12 m
Surface: asphalt
Runway edge lights: FLD
Latitude: 38-46.849667N
Longitude: 090-29.127167W
Elevation: 530.0 ft.
Traffic pattern: leftleft

Heliport Ownership and Management from official FAA records

Ownership: Privately-owned
Owner: SSM HEALTH CARE ST. LOUIS
1015 CORPORATE SQ DR., SUITE 160
ST LOUIS, MO 63132
Phone (314) 989-2895
Manager: JOHN O'BRIEN
1015 CORPORATE SQ DR., SUITE 160
ST LOUIS, MO 63132
Phone (314) 989-2895

Additional Remarks

FOR CD CTC ST LOUIS APCH AT 314-890-1018.

Instrument Procedures

There are no published instrument procedures at MO44.

Some nearby airports with instrument procedures:

1H0 - Creve Coeur Airport (3 nm S)
KSTL - St Louis Lambert International Airport (6 nm E)
KSET - St Charles County Smartt Airport (9 nm N)
KSUS - Spirit of St Louis Airport (11 nm SW)
KCPS - St Louis Downtown Airport (20 nm SE)
 
Loc | Ops | Rwys | IFR | FBO | Links
Com | Nav | Svcs | Stats | Notes
Area around MO44 (SSM Health St. Joseph Hospital-St. Charles Heliport)
 
Road maps at: MapQuest Bing Google
 
Aerial photo
No photo
 
Sectional chart

 
Airport distance calculator
Flying to SSM Health St. Joseph Hospital-St. Charles Heliport? Find the distance to fly.

From to MO44

Sunrise and sunset
Times for 15-Jan-2021
 Local
(UTC-6)
 Zulu
(UTC)
Morning civil twilight06:5112:51
Sunrise07:2013:20
Sunset17:0323:03
Evening civil twilight17:3223:32

Current date and time
Zulu (UTC)  15-Jan-2021 18:00:58
Local (UTC-6)  15-Jan-2021 12:00:58
 
METAR
KSTL 
6nm E 
151751Z 21012G20KT 2SM -SN BR BKN013 OVC019 01/M01 A2947 RMK AO2 SLP987 P0000 60000 T00111011 10022 20011 56008
KSET 
9nm N 
151754Z AUTO 21017G23KT 2 1/2SM -SN BR BKN014 OVC020 02/M01 A2946 RMK AO2 SLP976 P0000 60000 T00171006 10022 20011 58007
KSUS 
11nm SW 
151754Z 23010KT 1SM R08R/P6000FT -SN BR BKN015 BKN022 OVC029 01/M02 A2946 RMK AO2 SLP984 P0000 60000 T00061017 10017 20006 58008
TAF
KSTL 
6nm E 
151620Z 1516/1618 24012G20KT 2SM -SN OVC022 TEMPO 1518/1522 1SM -SN BR VV009 FM160100 30010KT 6SM -SN BR OVC010
KSUS 
11nm SW 
151450Z 1515/1612 24010G18KT 3SM -SN OVC025 TEMPO 1518/1522 1SM -SN BR VV009 FM160100 30009KT 6SM -SN BR OVC010
NOTAMs
Click for the latest NOTAMs
NOTAMs are issued by the DoD/FAA and will open in a separate window not controlled by AirNav.

 

 
 

Would you like to see your business listed on this page?

 If your business provides an interesting product or service to pilots, flight crews, aircraft, or users of the SSM Health St. Joseph Hospital-St. Charles Heliport, you should consider listing it here.  To start the listing process, click on the button below
 
Add a business
 

Other Pages about SSM Health St. Joseph Hospital-St. Charles Heliport

Update a link
 
Copyright © AirNav, LLC. All rights reserved. Privacy Policy  Contact